Avon, Ohio
Current Conditions -  °F | °C
As of 4:08 AM on Wednesday 22 Oct 2014 (Local Time) from KCLE Reporting Station
Overcast Overcast  
Wind Chill: 43°   Ceiling: 1500
Heat Index: 48°   Visibility: 10mi
Dew Point: 43°   Wind: 12mph
Humidity: 83%   Direction: 10°N
Pressure: 30.17"   Gusts: NA
Location:  41.47°N, 82.02°W
Report Text: KCLE 220808Z 01010KT 10SM OVC015 09/06 A3017 RMK AO2 T00890061 $
Loading
Personal Weather Stations






























Interactive Weather Map New forecast layout! Learn more

10-Day Weather Forecast

Advertisements
Track Severe Weather on mobile